ソチ の空港の天気 - METARとTAF

ソチ空港 ( URSS / AER ) - ロシア ソチ
飛行場実況気象(Metar)
観測時間10/22 15:30 MSK (10/22 12:30 UTC)
風向・風速西 4m/s
視程10km以上
天気現象
なし
気温19℃
湿度68%
気圧1023hPa
METARURSS 221230Z 28004MPS 9999 NSC 19/13 Q1023 WS ALL RWY R02/010070 R06/010070 NOSIG RMK R06/30004G09MPS QFE766
過去の天気等 Google飛行場航空写真 Wunderground天気予報

過去48時間のMETAR

飛行場予報(TAF)
発表時間: 10/22 13:56 MSK (10/22 10:56 UTC)
予報対象時間: 22日15時 MSK ~ 23日15時 MSK
風向・風速西北西 4m/s 瞬間風速 9m/s
視程10km以上
全天の8割程度の雲 雲底高度 3050m
22日19時 MSK ~ 22日21時 MSK に徐々に
風向・風速北東 4m/s 瞬間風速 9m/s
全天の4割程度の雲 雲底高度 3050m
23日0時 MSK ~ 23日2時 MSK に徐々に
風向・風速北東 7m/s
なし
23日10時 MSK ~ 23日11時 MSK に徐々に
風向・風速南 3m/s 瞬間風速 8m/s
23日12時 MSK ~ 23日14時 MSK に徐々に
風向・風速南西 3m/s 瞬間風速 8m/s
少しの雲 雲底高度 1220m
TAF URSS 221056Z 2212/2312 29004G09MPS 9999 BKN100
BECMG 2216/2218 05004G09MPS SCT100
BECMG 2221/2223 04007MPS NSC
BECMG 2307/2308 18003G08MPS
BECMG 2309/2311 23003G08MPS FEW040